sensor_id;sensor_type;location;lat;lon;timestamp;P1;durP1;ratioP1;P2;durP2;ratioP2
1935;SDS011;969;49.892;10.896;2023-06-05T00:01:18;2.93;;;1.87;;
1935;SDS011;969;49.892;10.896;2023-06-05T00:03:43;2.57;;;1.77;;
1935;SDS011;969;49.892;10.896;2023-06-05T00:06:09;2.37;;;1.77;;
1935;SDS011;969;49.892;10.896;2023-06-05T00:08:35;2.27;;;1.97;;
1935;SDS011;969;49.892;10.896;2023-06-05T00:11:01;1.40;;;1.30;;
1935;SDS011;969;49.892;10.896;2023-06-05T00:13:27;2.43;;;1.60;;
1935;SDS011;969;49.892;10.896;2023-06-05T00:15:52;2.90;;;2.10;;
1935;SDS011;969;49.892;10.896;2023-06-05T00:18:18;2.07;;;1.57;;
1935;SDS011;969;49.892;10.896;2023-06-05T00:20:44;2.13;;;1.57;;
1935;SDS011;969;49.892;10.896;2023-06-05T00:23:09;2.13;;;1.87;;
1935;SDS011;969;49.892;10.896;2023-06-05T00:25:38;2.27;;;1.77;;
1935;SDS011;969;49.892;10.896;2023-06-05T00:28:03;2.50;;;1.83;;
1935;SDS011;969;49.892;10.896;2023-06-05T00:30:29;2.60;;;1.80;;
1935;SDS011;969;49.892;10.896;2023-06-05T00:32:55;1.63;;;1.40;;
1935;SDS011;969;49.892;10.896;2023-06-05T00:35:21;2.03;;;1.63;;
1935;SDS011;969;49.892;10.896;2023-06-05T00:37:47;2.90;;;2.23;;
1935;SDS011;969;49.892;10.896;2023-06-05T00:40:12;2.63;;;1.70;;
1935;SDS011;969;49.892;10.896;2023-06-05T00:42:38;1.63;;;1.53;;
1935;SDS011;969;49.892;10.896;2023-06-05T00:45:04;1.80;;;1.60;;
1935;SDS011;969;49.892;10.896;2023-06-05T00:47:30;1.83;;;1.67;;
1935;SDS011;969;49.892;10.896;2023-06-05T00:49:57;3.67;;;1.93;;
1935;SDS011;969;49.892;10.896;2023-06-05T00:52:23;1.93;;;1.53;;
1935;SDS011;969;49.892;10.896;2023-06-05T00:54:48;1.30;;;1.10;;
1935;SDS011;969;49.892;10.896;2023-06-05T00:57:14;1.73;;;1.40;;
1935;SDS011;969;49.892;10.896;2023-06-05T00:59:40;2.27;;;1.90;;
1935;SDS011;969;49.892;10.896;2023-06-05T01:02:09;2.17;;;1.90;;
1935;SDS011;969;49.892;10.896;2023-06-05T01:04:38;3.20;;;2.17;;
1935;SDS011;969;49.892;10.896;2023-06-05T01:07:05;2.00;;;1.80;;
1935;SDS011;969;49.892;10.896;2023-06-05T01:09:32;2.33;;;1.90;;
1935;SDS011;969;49.892;10.896;2023-06-05T01:14:46;2.67;;;2.27;;
1935;SDS011;969;49.892;10.896;2023-06-05T01:17:14;2.00;;;1.77;;
1935;SDS011;969;49.892;10.896;2023-06-05T01:19:44;1.90;;;1.60;;
1935;SDS011;969;49.892;10.896;2023-06-05T01:22:10;1.73;;;1.60;;
1935;SDS011;969;49.892;10.896;2023-06-05T01:24:37;2.60;;;1.90;;
1935;SDS011;969;49.892;10.896;2023-06-05T01:27:11;2.17;;;1.97;;
1935;SDS011;969;49.892;10.896;2023-06-05T01:32:40;2.17;;;1.50;;
1935;SDS011;969;49.892;10.896;2023-06-05T01:35:12;1.83;;;1.47;;
1935;SDS011;969;49.892;10.896;2023-06-05T01:37:42;2.43;;;1.70;;
1935;SDS011;969;49.892;10.896;2023-06-05T01:40:11;2.03;;;1.73;;
1935;SDS011;969;49.892;10.896;2023-06-05T01:42:39;2.13;;;1.53;;
1935;SDS011;969;49.892;10.896;2023-06-05T01:45:07;1.83;;;1.47;;
1935;SDS011;969;49.892;10.896;2023-06-05T01:47:37;2.17;;;1.80;;
1935;SDS011;969;49.892;10.896;2023-06-05T01:50:04;1.93;;;1.63;;
1935;SDS011;969;49.892;10.896;2023-06-05T01:52:31;2.07;;;1.80;;
1935;SDS011;969;49.892;10.896;2023-06-05T01:54:58;2.80;;;1.70;;
1935;SDS011;969;49.892;10.896;2023-06-05T01:57:26;2.27;;;1.63;;
1935;SDS011;969;49.892;10.896;2023-06-05T01:59:52;2.37;;;1.60;;
1935;SDS011;969;49.892;10.896;2023-06-05T02:02:19;1.83;;;1.67;;
1935;SDS011;969;49.892;10.896;2023-06-05T02:04:46;2.03;;;1.60;;
1935;SDS011;969;49.892;10.896;2023-06-05T02:07:12;2.67;;;1.70;;
1935;SDS011;969;49.892;10.896;2023-06-05T02:09:41;3.43;;;2.23;;
1935;SDS011;969;49.892;10.896;2023-06-05T02:12:07;3.10;;;2.07;;
1935;SDS011;969;49.892;10.896;2023-06-05T02:14:33;2.27;;;1.73;;
1935;SDS011;969;49.892;10.896;2023-06-05T02:17:03;2.10;;;1.80;;
1935;SDS011;969;49.892;10.896;2023-06-05T02:19:32;2.47;;;1.70;;
1935;SDS011;969;49.892;10.896;2023-06-05T02:21:58;1.83;;;1.40;;
1935;SDS011;969;49.892;10.896;2023-06-05T02:24:23;4.40;;;1.93;;
1935;SDS011;969;49.892;10.896;2023-06-05T02:26:50;2.50;;;1.87;;
1935;SDS011;969;49.892;10.896;2023-06-05T02:29:16;2.60;;;2.17;;
1935;SDS011;969;49.892;10.896;2023-06-05T02:31:42;2.30;;;1.60;;
1935;SDS011;969;49.892;10.896;2023-06-05T02:34:08;1.90;;;1.70;;
1935;SDS011;969;49.892;10.896;2023-06-05T02:36:34;1.50;;;1.40;;
1935;SDS011;969;49.892;10.896;2023-06-05T02:39:00;2.13;;;1.60;;
1935;SDS011;969;49.892;10.896;2023-06-05T02:41:26;2.97;;;1.80;;
1935;SDS011;969;49.892;10.896;2023-06-05T02:43:53;2.30;;;2.00;;
1935;SDS011;969;49.892;10.896;2023-06-05T02:46:21;2.47;;;1.77;;
1935;SDS011;969;49.892;10.896;2023-06-05T02:48:49;1.57;;;1.43;;
1935;SDS011;969;49.892;10.896;2023-06-05T02:51:15;2.80;;;1.83;;
1935;SDS011;969;49.892;10.896;2023-06-05T02:53:41;2.17;;;1.77;;
1935;SDS011;969;49.892;10.896;2023-06-05T02:56:07;1.93;;;1.73;;
1935;SDS011;969;49.892;10.896;2023-06-05T02:58:32;2.10;;;1.77;;
1935;SDS011;969;49.892;10.896;2023-06-05T03:01:02;1.70;;;1.60;;
1935;SDS011;969;49.892;10.896;2023-06-05T03:03:31;2.43;;;1.87;;
1935;SDS011;969;49.892;10.896;2023-06-05T03:06:00;2.00;;;1.57;;
1935;SDS011;969;49.892;10.896;2023-06-05T03:08:32;2.67;;;2.00;;
1935;SDS011;969;49.892;10.896;2023-06-05T03:10:59;1.87;;;1.40;;
1935;SDS011;969;49.892;10.896;2023-06-05T03:13:25;1.90;;;1.70;;
1935;SDS011;969;49.892;10.896;2023-06-05T03:15:51;2.20;;;1.47;;
1935;SDS011;969;49.892;10.896;2023-06-05T03:18:18;1.80;;;1.60;;
1935;SDS011;969;49.892;10.896;2023-06-05T03:20:47;4.13;;;2.50;;
1935;SDS011;969;49.892;10.896;2023-06-05T03:23:15;2.10;;;1.90;;
1935;SDS011;969;49.892;10.896;2023-06-05T03:25:41;2.97;;;2.00;;
1935;SDS011;969;49.892;10.896;2023-06-05T03:28:07;2.53;;;1.73;;
1935;SDS011;969;49.892;10.896;2023-06-05T03:30:32;2.50;;;1.93;;
1935;SDS011;969;49.892;10.896;2023-06-05T03:32:58;3.67;;;1.70;;
1935;SDS011;969;49.892;10.896;2023-06-05T03:35:24;2.40;;;1.57;;
1935;SDS011;969;49.892;10.896;2023-06-05T03:37:49;2.37;;;2.13;;
1935;SDS011;969;49.892;10.896;2023-06-05T03:40:15;1.70;;;1.50;;
1935;SDS011;969;49.892;10.896;2023-06-05T03:42:41;1.63;;;1.50;;
1935;SDS011;969;49.892;10.896;2023-06-05T03:45:06;2.33;;;1.60;;
1935;SDS011;969;49.892;10.896;2023-06-05T03:47:33;2.83;;;1.57;;
1935;SDS011;969;49.892;10.896;2023-06-05T03:49:59;3.27;;;1.90;;
1935;SDS011;969;49.892;10.896;2023-06-05T03:52:25;2.97;;;1.97;;
1935;SDS011;969;49.892;10.896;2023-06-05T03:54:51;2.27;;;1.50;;
1935;SDS011;969;49.892;10.896;2023-06-05T03:57:20;3.37;;;1.80;;
1935;SDS011;969;49.892;10.896;2023-06-05T03:59:45;2.30;;;1.70;;
1935;SDS011;969;49.892;10.896;2023-06-05T04:02:14;2.70;;;2.17;;
1935;SDS011;969;49.892;10.896;2023-06-05T04:04:40;2.77;;;1.93;;
1935;SDS011;969;49.892;10.896;2023-06-05T04:07:05;1.73;;;1.57;;
1935;SDS011;969;49.892;10.896;2023-06-05T04:09:31;2.13;;;1.67;;
1935;SDS011;969;49.892;10.896;2023-06-05T04:11:57;1.63;;;1.53;;
1935;SDS011;969;49.892;10.896;2023-06-05T04:14:23;2.80;;;2.10;;
1935;SDS011;969;49.892;10.896;2023-06-05T04:16:49;2.00;;;1.67;;
1935;SDS011;969;49.892;10.896;2023-06-05T04:19:15;2.50;;;1.90;;
1935;SDS011;969;49.892;10.896;2023-06-05T04:21:41;3.63;;;2.07;;
1935;SDS011;969;49.892;10.896;2023-06-05T04:24:07;2.10;;;1.90;;
1935;SDS011;969;49.892;10.896;2023-06-05T04:26:38;3.50;;;2.00;;
1935;SDS011;969;49.892;10.896;2023-06-05T04:29:06;1.90;;;1.60;;
1935;SDS011;969;49.892;10.896;2023-06-05T04:31:38;1.80;;;1.70;;
1935;SDS011;969;49.892;10.896;2023-06-05T04:34:08;2.40;;;1.97;;
1935;SDS011;969;49.892;10.896;2023-06-05T04:36:34;3.17;;;1.80;;
1935;SDS011;969;49.892;10.896;2023-06-05T04:39:01;3.07;;;2.30;;
1935;SDS011;969;49.892;10.896;2023-06-05T04:41:28;2.30;;;1.70;;
1935;SDS011;969;49.892;10.896;2023-06-05T04:43:55;2.63;;;1.67;;
1935;SDS011;969;49.892;10.896;2023-06-05T04:46:22;2.80;;;2.13;;
1935;SDS011;969;49.892;10.896;2023-06-05T04:48:48;3.60;;;2.00;;
1935;SDS011;969;49.892;10.896;2023-06-05T04:51:15;2.27;;;1.80;;
1935;SDS011;969;49.892;10.896;2023-06-05T04:53:40;3.63;;;1.60;;
1935;SDS011;969;49.892;10.896;2023-06-05T04:56:07;2.67;;;2.47;;
1935;SDS011;969;49.892;10.896;2023-06-05T04:58:32;2.03;;;1.83;;
1935;SDS011;969;49.892;10.896;2023-06-05T05:00:58;2.03;;;1.80;;
1935;SDS011;969;49.892;10.896;2023-06-05T05:03:30;1.90;;;1.70;;
1935;SDS011;969;49.892;10.896;2023-06-05T05:05:56;1.83;;;1.40;;
1935;SDS011;969;49.892;10.896;2023-06-05T05:08:22;2.10;;;1.73;;
1935;SDS011;969;49.892;10.896;2023-06-05T05:10:48;2.50;;;1.93;;
1935;SDS011;969;49.892;10.896;2023-06-05T05:13:13;1.70;;;1.50;;
1935;SDS011;969;49.892;10.896;2023-06-05T05:15:39;2.33;;;1.80;;
1935;SDS011;969;49.892;10.896;2023-06-05T05:18:04;1.87;;;1.70;;
1935;SDS011;969;49.892;10.896;2023-06-05T05:20:30;2.73;;;2.13;;
1935;SDS011;969;49.892;10.896;2023-06-05T05:22:58;2.53;;;2.10;;
1935;SDS011;969;49.892;10.896;2023-06-05T05:25:25;2.20;;;2.00;;
1935;SDS011;969;49.892;10.896;2023-06-05T05:27:51;2.70;;;2.03;;
1935;SDS011;969;49.892;10.896;2023-06-05T05:30:17;3.10;;;2.40;;
1935;SDS011;969;49.892;10.896;2023-06-05T05:32:42;3.13;;;2.07;;
1935;SDS011;969;49.892;10.896;2023-06-05T05:35:08;2.17;;;1.80;;
1935;SDS011;969;49.892;10.896;2023-06-05T05:37:34;2.87;;;2.37;;
1935;SDS011;969;49.892;10.896;2023-06-05T05:39:59;3.17;;;2.50;;
1935;SDS011;969;49.892;10.896;2023-06-05T05:42:25;3.43;;;2.10;;
1935;SDS011;969;49.892;10.896;2023-06-05T05:44:50;2.40;;;1.80;;
1935;SDS011;969;49.892;10.896;2023-06-05T05:47:16;3.73;;;1.80;;
1935;SDS011;969;49.892;10.896;2023-06-05T05:49:41;2.47;;;2.27;;
1935;SDS011;969;49.892;10.896;2023-06-05T05:52:07;2.70;;;2.10;;
1935;SDS011;969;49.892;10.896;2023-06-05T05:54:33;3.33;;;1.87;;
1935;SDS011;969;49.892;10.896;2023-06-05T05:56:59;3.10;;;2.20;;
1935;SDS011;969;49.892;10.896;2023-06-05T05:59:25;2.13;;;1.93;;
1935;SDS011;969;49.892;10.896;2023-06-05T06:01:50;2.33;;;1.80;;
1935;SDS011;969;49.892;10.896;2023-06-05T06:04:17;2.53;;;1.80;;
1935;SDS011;969;49.892;10.896;2023-06-05T06:06:43;1.60;;;1.50;;
1935;SDS011;969;49.892;10.896;2023-06-05T06:09:12;3.63;;;2.00;;
1935;SDS011;969;49.892;10.896;2023-06-05T06:11:38;2.97;;;1.90;;
1935;SDS011;969;49.892;10.896;2023-06-05T06:14:04;4.37;;;2.20;;
1935;SDS011;969;49.892;10.896;2023-06-05T06:16:30;2.40;;;1.70;;
1935;SDS011;969;49.892;10.896;2023-06-05T06:18:56;2.57;;;2.10;;
1935;SDS011;969;49.892;10.896;2023-06-05T06:21:22;2.17;;;1.97;;
1935;SDS011;969;49.892;10.896;2023-06-05T06:23:47;3.00;;;2.00;;
1935;SDS011;969;49.892;10.896;2023-06-05T06:26:13;3.17;;;2.23;;
1935;SDS011;969;49.892;10.896;2023-06-05T06:28:39;2.97;;;2.10;;
1935;SDS011;969;49.892;10.896;2023-06-05T06:31:05;4.40;;;2.53;;
1935;SDS011;969;49.892;10.896;2023-06-05T06:33:31;2.53;;;1.93;;
1935;SDS011;969;49.892;10.896;2023-06-05T06:35:57;2.60;;;2.40;;
1935;SDS011;969;49.892;10.896;2023-06-05T06:38:24;2.83;;;2.00;;
1935;SDS011;969;49.892;10.896;2023-06-05T06:40:55;2.37;;;1.70;;
1935;SDS011;969;49.892;10.896;2023-06-05T06:43:24;1.90;;;1.60;;
1935;SDS011;969;49.892;10.896;2023-06-05T06:45:50;2.20;;;2.00;;
1935;SDS011;969;49.892;10.896;2023-06-05T06:48:17;2.60;;;2.10;;
1935;SDS011;969;49.892;10.896;2023-06-05T06:50:43;2.73;;;1.80;;
1935;SDS011;969;49.892;10.896;2023-06-05T06:53:09;3.00;;;2.17;;
1935;SDS011;969;49.892;10.896;2023-06-05T06:55:35;2.13;;;1.70;;
1935;SDS011;969;49.892;10.896;2023-06-05T06:58:01;2.13;;;1.83;;
1935;SDS011;969;49.892;10.896;2023-06-05T07:00:27;2.57;;;2.00;;
1935;SDS011;969;49.892;10.896;2023-06-05T07:02:53;3.53;;;2.30;;
1935;SDS011;969;49.892;10.896;2023-06-05T07:05:18;2.07;;;1.70;;
1935;SDS011;969;49.892;10.896;2023-06-05T07:07:45;2.33;;;1.80;;
1935;SDS011;969;49.892;10.896;2023-06-05T07:10:10;2.00;;;1.80;;
1935;SDS011;969;49.892;10.896;2023-06-05T07:12:36;2.70;;;2.00;;
1935;SDS011;969;49.892;10.896;2023-06-05T07:15:02;2.77;;;2.13;;
1935;SDS011;969;49.892;10.896;2023-06-05T07:17:29;2.97;;;1.93;;
1935;SDS011;969;49.892;10.896;2023-06-05T07:19:55;4.13;;;2.33;;
1935;SDS011;969;49.892;10.896;2023-06-05T07:22:22;2.50;;;1.90;;
1935;SDS011;969;49.892;10.896;2023-06-05T07:24:49;3.13;;;2.37;;
1935;SDS011;969;49.892;10.896;2023-06-05T07:27:15;1.90;;;1.53;;
1935;SDS011;969;49.892;10.896;2023-06-05T07:29:41;1.73;;;1.50;;
1935;SDS011;969;49.892;10.896;2023-06-05T07:32:06;4.07;;;1.70;;
1935;SDS011;969;49.892;10.896;2023-06-05T07:34:32;2.50;;;1.90;;
1935;SDS011;969;49.892;10.896;2023-06-05T07:37:01;2.57;;;1.87;;
1935;SDS011;969;49.892;10.896;2023-06-05T07:39:27;2.73;;;1.93;;
1935;SDS011;969;49.892;10.896;2023-06-05T07:41:53;2.53;;;1.93;;
1935;SDS011;969;49.892;10.896;2023-06-05T07:44:19;2.33;;;2.03;;
1935;SDS011;969;49.892;10.896;2023-06-05T07:46:48;2.80;;;1.93;;
1935;SDS011;969;49.892;10.896;2023-06-05T07:49:15;2.10;;;1.90;;
1935;SDS011;969;49.892;10.896;2023-06-05T07:51:41;2.97;;;1.77;;
1935;SDS011;969;49.892;10.896;2023-06-05T07:54:11;3.67;;;2.43;;
1935;SDS011;969;49.892;10.896;2023-06-05T07:56:37;2.60;;;1.87;;
1935;SDS011;969;49.892;10.896;2023-06-05T07:59:04;2.50;;;2.00;;
1935;SDS011;969;49.892;10.896;2023-06-05T08:01:31;3.33;;;2.20;;
1935;SDS011;969;49.892;10.896;2023-06-05T08:04:01;2.80;;;1.83;;
1935;SDS011;969;49.892;10.896;2023-06-05T08:06:35;2.20;;;1.70;;
1935;SDS011;969;49.892;10.896;2023-06-05T08:09:03;2.00;;;1.80;;
1935;SDS011;969;49.892;10.896;2023-06-05T08:11:34;2.40;;;1.70;;
1935;SDS011;969;49.892;10.896;2023-06-05T08:14:04;4.47;;;2.20;;
1935;SDS011;969;49.892;10.896;2023-06-05T08:16:31;2.60;;;2.10;;
1935;SDS011;969;49.892;10.896;2023-06-05T08:18:56;2.30;;;1.80;;
1935;SDS011;969;49.892;10.896;2023-06-05T08:21:22;2.10;;;1.87;;
1935;SDS011;969;49.892;10.896;2023-06-05T08:23:48;6.80;;;2.43;;
1935;SDS011;969;49.892;10.896;2023-06-05T08:26:13;2.10;;;1.60;;
1935;SDS011;969;49.892;10.896;2023-06-05T08:28:40;2.93;;;1.83;;
1935;SDS011;969;49.892;10.896;2023-06-05T08:31:07;2.60;;;1.80;;
1935;SDS011;969;49.892;10.896;2023-06-05T08:33:33;4.33;;;1.77;;
1935;SDS011;969;49.892;10.896;2023-06-05T08:35:59;2.30;;;1.90;;
1935;SDS011;969;49.892;10.896;2023-06-05T08:38:26;2.20;;;1.50;;
1935;SDS011;969;49.892;10.896;2023-06-05T08:40:55;1.90;;;1.60;;
1935;SDS011;969;49.892;10.896;2023-06-05T08:43:24;1.93;;;1.73;;
1935;SDS011;969;49.892;10.896;2023-06-05T08:45:51;3.30;;;2.00;;
1935;SDS011;969;49.892;10.896;2023-06-05T08:48:20;2.20;;;2.00;;
1935;SDS011;969;49.892;10.896;2023-06-05T08:50:50;2.27;;;2.00;;
1935;SDS011;969;49.892;10.896;2023-06-05T08:53:17;2.40;;;2.00;;
1935;SDS011;969;49.892;10.896;2023-06-05T08:55:46;2.63;;;2.00;;
1935;SDS011;969;49.892;10.896;2023-06-05T08:58:15;2.33;;;1.80;;
1935;SDS011;969;49.892;10.896;2023-06-05T09:00:41;2.90;;;2.20;;
1935;SDS011;969;49.892;10.896;2023-06-05T09:03:10;2.27;;;1.83;;
1935;SDS011;969;49.892;10.896;2023-06-05T09:05:40;2.17;;;1.80;;
1935;SDS011;969;49.892;10.896;2023-06-05T09:08:05;2.17;;;1.97;;
1935;SDS011;969;49.892;10.896;2023-06-05T09:10:31;2.80;;;2.30;;
1935;SDS011;969;49.892;10.896;2023-06-05T09:13:01;1.90;;;1.70;;
1935;SDS011;969;49.892;10.896;2023-06-05T09:15:29;2.27;;;2.07;;
1935;SDS011;969;49.892;10.896;2023-06-05T09:18:10;3.67;;;2.00;;
1935;SDS011;969;49.892;10.896;2023-06-05T09:20:37;2.17;;;1.80;;
1935;SDS011;969;49.892;10.896;2023-06-05T09:23:13;2.37;;;2.17;;
1935;SDS011;969;49.892;10.896;2023-06-05T09:25:49;2.00;;;1.80;;
1935;SDS011;969;49.892;10.896;2023-06-05T09:28:16;2.80;;;1.70;;
1935;SDS011;969;49.892;10.896;2023-06-05T09:30:55;2.40;;;1.60;;
1935;SDS011;969;49.892;10.896;2023-06-05T09:33:23;2.40;;;2.00;;
1935;SDS011;969;49.892;10.896;2023-06-05T09:36:06;2.23;;;2.00;;
1935;SDS011;969;49.892;10.896;2023-06-05T09:38:33;2.23;;;1.83;;
1935;SDS011;969;49.892;10.896;2023-06-05T09:41:09;2.40;;;1.90;;
1935;SDS011;969;49.892;10.896;2023-06-05T09:43:37;3.90;;;2.03;;
1935;SDS011;969;49.892;10.896;2023-06-05T09:46:10;1.97;;;1.77;;
1935;SDS011;969;49.892;10.896;2023-06-05T09:48:37;2.50;;;1.93;;
1935;SDS011;969;49.892;10.896;2023-06-05T09:51:07;1.90;;;1.70;;
1935;SDS011;969;49.892;10.896;2023-06-05T09:53:40;2.73;;;1.90;;
1935;SDS011;969;49.892;10.896;2023-06-05T09:56:14;3.13;;;1.73;;
1935;SDS011;969;49.892;10.896;2023-06-05T10:01:17;2.00;;;1.80;;
1935;SDS011;969;49.892;10.896;2023-06-05T10:03:48;1.70;;;1.60;;
1935;SDS011;969;49.892;10.896;2023-06-05T10:06:22;2.80;;;1.67;;
1935;SDS011;969;49.892;10.896;2023-06-05T10:08:53;2.73;;;2.50;;
1935;SDS011;969;49.892;10.896;2023-06-05T10:11:20;3.00;;;2.07;;
1935;SDS011;969;49.892;10.896;2023-06-05T10:13:47;2.10;;;1.90;;
1935;SDS011;969;49.892;10.896;2023-06-05T10:16:16;3.07;;;2.10;;
1935;SDS011;969;49.892;10.896;2023-06-05T10:18:45;2.20;;;2.00;;
1935;SDS011;969;49.892;10.896;2023-06-05T10:21:13;1.93;;;1.70;;
1935;SDS011;969;49.892;10.896;2023-06-05T10:23:40;2.30;;;2.10;;
1935;SDS011;969;49.892;10.896;2023-06-05T10:26:11;2.87;;;2.20;;
1935;SDS011;969;49.892;10.896;2023-06-05T10:28:57;2.53;;;1.80;;
1935;SDS011;969;49.892;10.896;2023-06-05T10:31:47;3.23;;;2.60;;
1935;SDS011;969;49.892;10.896;2023-06-05T10:37:38;3.60;;;2.47;;
1935;SDS011;969;49.892;10.896;2023-06-05T10:40:23;3.60;;;2.20;;
1935;SDS011;969;49.892;10.896;2023-06-05T10:42:50;2.40;;;2.03;;
1935;SDS011;969;49.892;10.896;2023-06-05T10:45:31;2.50;;;2.30;;
1935;SDS011;969;49.892;10.896;2023-06-05T10:47:57;3.53;;;2.70;;
1935;SDS011;969;49.892;10.896;2023-06-05T10:50:23;3.10;;;2.80;;
1935;SDS011;969;49.892;10.896;2023-06-05T10:52:51;3.57;;;2.90;;
1935;SDS011;969;49.892;10.896;2023-06-05T10:55:19;3.10;;;2.60;;
1935;SDS011;969;49.892;10.896;2023-06-05T11:00:32;3.83;;;2.40;;
1935;SDS011;969;49.892;10.896;2023-06-05T11:02:58;4.10;;;3.27;;
1935;SDS011;969;49.892;10.896;2023-06-05T11:05:25;3.07;;;2.80;;
1935;SDS011;969;49.892;10.896;2023-06-05T11:16:27;3.00;;;2.70;;
1935;SDS011;969;49.892;10.896;2023-06-05T11:22:07;3.40;;;3.03;;
1935;SDS011;969;49.892;10.896;2023-06-05T11:24:34;3.50;;;3.20;;
1935;SDS011;969;49.892;10.896;2023-06-05T11:27:01;3.13;;;2.83;;
1935;SDS011;969;49.892;10.896;2023-06-05T11:29:28;3.07;;;2.77;;
1935;SDS011;969;49.892;10.896;2023-06-05T11:31:54;3.40;;;3.10;;
1935;SDS011;969;49.892;10.896;2023-06-05T11:34:20;6.43;;;2.70;;
1935;SDS011;969;49.892;10.896;2023-06-05T11:36:46;5.03;;;3.27;;
1935;SDS011;969;49.892;10.896;2023-06-05T11:39:12;5.20;;;3.10;;
1935;SDS011;969;49.892;10.896;2023-06-05T11:41:45;3.33;;;2.93;;
1935;SDS011;969;49.892;10.896;2023-06-05T11:44:13;3.40;;;3.00;;
1935;SDS011;969;49.892;10.896;2023-06-05T11:46:40;3.57;;;3.27;;
1935;SDS011;969;49.892;10.896;2023-06-05T11:49:07;3.17;;;2.87;;
1935;SDS011;969;49.892;10.896;2023-06-05T11:51:48;3.97;;;3.03;;
1935;SDS011;969;49.892;10.896;2023-06-05T11:54:27;3.87;;;3.47;;
1935;SDS011;969;49.892;10.896;2023-06-05T11:57:02;3.07;;;2.77;;
1935;SDS011;969;49.892;10.896;2023-06-05T11:59:36;3.20;;;2.83;;
1935;SDS011;969;49.892;10.896;2023-06-05T12:02:02;2.67;;;2.47;;
1935;SDS011;969;49.892;10.896;2023-06-05T12:04:29;4.17;;;3.57;;
1935;SDS011;969;49.892;10.896;2023-06-05T12:06:58;5.20;;;2.90;;
1935;SDS011;969;49.892;10.896;2023-06-05T12:09:27;3.40;;;3.10;;
1935;SDS011;969;49.892;10.896;2023-06-05T12:11:57;3.50;;;3.20;;
1935;SDS011;969;49.892;10.896;2023-06-05T12:14:31;3.93;;;3.63;;
1935;SDS011;969;49.892;10.896;2023-06-05T12:16:58;3.50;;;3.20;;
1935;SDS011;969;49.892;10.896;2023-06-05T12:19:23;5.57;;;3.00;;
1935;SDS011;969;49.892;10.896;2023-06-05T12:21:49;3.90;;;2.90;;
1935;SDS011;969;49.892;10.896;2023-06-05T12:24:26;4.03;;;2.97;;
1935;SDS011;969;49.892;10.896;2023-06-05T12:27:01;3.43;;;3.00;;
1935;SDS011;969;49.892;10.896;2023-06-05T12:29:36;3.53;;;3.20;;
1935;SDS011;969;49.892;10.896;2023-06-05T12:32:24;3.33;;;3.00;;
1935;SDS011;969;49.892;10.896;2023-06-05T12:34:51;3.30;;;2.93;;
1935;SDS011;969;49.892;10.896;2023-06-05T12:37:25;3.70;;;3.27;;
1935;SDS011;969;49.892;10.896;2023-06-05T12:39:59;4.07;;;3.00;;
1935;SDS011;969;49.892;10.896;2023-06-05T12:42:33;6.13;;;3.73;;
1935;SDS011;969;49.892;10.896;2023-06-05T12:45:00;4.80;;;3.40;;
1935;SDS011;969;49.892;10.896;2023-06-05T12:47:26;3.43;;;3.10;;
1935;SDS011;969;49.892;10.896;2023-06-05T12:49:52;9.70;;;3.70;;
1935;SDS011;969;49.892;10.896;2023-06-05T12:52:18;4.00;;;3.23;;
1935;SDS011;969;49.892;10.896;2023-06-05T12:54:43;3.60;;;3.30;;
1935;SDS011;969;49.892;10.896;2023-06-05T12:57:09;3.63;;;3.33;;
1935;SDS011;969;49.892;10.896;2023-06-05T12:59:35;7.90;;;4.30;;
1935;SDS011;969;49.892;10.896;2023-06-05T13:02:00;5.40;;;4.10;;
1935;SDS011;969;49.892;10.896;2023-06-05T13:04:27;5.60;;;4.83;;
1935;SDS011;969;49.892;10.896;2023-06-05T13:06:53;6.53;;;5.50;;
1935;SDS011;969;49.892;10.896;2023-06-05T13:09:20;10.77;;;7.30;;
1935;SDS011;969;49.892;10.896;2023-06-05T13:11:45;9.60;;;7.43;;
1935;SDS011;969;49.892;10.896;2023-06-05T13:14:11;13.80;;;8.27;;
1935;SDS011;969;49.892;10.896;2023-06-05T13:16:36;14.20;;;8.97;;
1935;SDS011;969;49.892;10.896;2023-06-05T13:19:02;18.90;;;10.20;;
1935;SDS011;969;49.892;10.896;2023-06-05T13:21:28;22.77;;;11.90;;
1935;SDS011;969;49.892;10.896;2023-06-05T13:23:53;20.60;;;12.60;;
1935;SDS011;969;49.892;10.896;2023-06-05T13:26:19;16.07;;;11.40;;
1935;SDS011;969;49.892;10.896;2023-06-05T13:28:44;24.47;;;13.87;;
1935;SDS011;969;49.892;10.896;2023-06-05T13:31:10;16.53;;;13.03;;
1935;SDS011;969;49.892;10.896;2023-06-05T13:33:38;27.87;;;14.23;;
1935;SDS011;969;49.892;10.896;2023-06-05T13:36:04;30.10;;;14.37;;
1935;SDS011;969;49.892;10.896;2023-06-05T13:38:30;27.33;;;14.20;;
1935;SDS011;969;49.892;10.896;2023-06-05T13:40:55;20.27;;;11.90;;
1935;SDS011;969;49.892;10.896;2023-06-05T13:43:21;23.90;;;12.17;;
1935;SDS011;969;49.892;10.896;2023-06-05T13:45:49;15.03;;;11.40;;
1935;SDS011;969;49.892;10.896;2023-06-05T13:48:15;17.57;;;10.97;;
1935;SDS011;969;49.892;10.896;2023-06-05T13:50:40;22.07;;;11.47;;
1935;SDS011;969;49.892;10.896;2023-06-05T13:53:08;15.77;;;11.33;;
1935;SDS011;969;49.892;10.896;2023-06-05T13:55:33;20.27;;;12.13;;
1935;SDS011;969;49.892;10.896;2023-06-05T13:57:59;17.20;;;10.87;;
1935;SDS011;969;49.892;10.896;2023-06-05T14:00:27;23.63;;;11.87;;
1935;SDS011;969;49.892;10.896;2023-06-05T14:02:54;21.80;;;10.43;;
1935;SDS011;969;49.892;10.896;2023-06-05T14:05:20;15.10;;;10.90;;
1935;SDS011;969;49.892;10.896;2023-06-05T14:07:46;17.53;;;10.53;;
1935;SDS011;969;49.892;10.896;2023-06-05T14:10:11;15.87;;;9.77;;
1935;SDS011;969;49.892;10.896;2023-06-05T14:12:37;14.10;;;9.73;;
1935;SDS011;969;49.892;10.896;2023-06-05T14:15:03;14.70;;;10.47;;
1935;SDS011;969;49.892;10.896;2023-06-05T14:17:28;10.67;;;8.77;;
1935;SDS011;969;49.892;10.896;2023-06-05T14:19:54;15.60;;;10.40;;
1935;SDS011;969;49.892;10.896;2023-06-05T14:22:20;13.30;;;9.50;;
1935;SDS011;969;49.892;10.896;2023-06-05T14:24:46;14.40;;;9.40;;
1935;SDS011;969;49.892;10.896;2023-06-05T14:27:11;14.80;;;9.83;;
1935;SDS011;969;49.892;10.896;2023-06-05T14:29:38;12.93;;;9.00;;
1935;SDS011;969;49.892;10.896;2023-06-05T14:32:04;14.07;;;8.90;;
1935;SDS011;969;49.892;10.896;2023-06-05T14:34:30;15.13;;;9.30;;
1935;SDS011;969;49.892;10.896;2023-06-05T14:36:56;13.17;;;8.97;;
1935;SDS011;969;49.892;10.896;2023-06-05T14:39:21;17.33;;;9.70;;
1935;SDS011;969;49.892;10.896;2023-06-05T14:41:47;14.70;;;8.27;;
1935;SDS011;969;49.892;10.896;2023-06-05T14:44:13;11.17;;;8.90;;
1935;SDS011;969;49.892;10.896;2023-06-05T14:46:38;15.03;;;8.73;;
1935;SDS011;969;49.892;10.896;2023-06-05T14:49:04;14.90;;;9.70;;
1935;SDS011;969;49.892;10.896;2023-06-05T14:51:30;12.30;;;9.00;;
1935;SDS011;969;49.892;10.896;2023-06-05T14:53:56;12.93;;;9.60;;
1935;SDS011;969;49.892;10.896;2023-06-05T14:56:21;15.60;;;9.10;;
1935;SDS011;969;49.892;10.896;2023-06-05T14:58:47;13.27;;;8.43;;
1935;SDS011;969;49.892;10.896;2023-06-05T15:01:13;14.27;;;9.07;;
1935;SDS011;969;49.892;10.896;2023-06-05T15:03:39;9.17;;;8.17;;
1935;SDS011;969;49.892;10.896;2023-06-05T15:06:05;12.40;;;7.73;;
1935;SDS011;969;49.892;10.896;2023-06-05T15:08:30;13.07;;;8.97;;
1935;SDS011;969;49.892;10.896;2023-06-05T15:10:56;14.33;;;8.60;;
1935;SDS011;969;49.892;10.896;2023-06-05T15:13:22;9.70;;;8.70;;
1935;SDS011;969;49.892;10.896;2023-06-05T15:15:47;8.80;;;7.43;;
1935;SDS011;969;49.892;10.896;2023-06-05T15:18:13;10.00;;;7.70;;
1935;SDS011;969;49.892;10.896;2023-06-05T15:20:39;13.77;;;8.63;;
1935;SDS011;969;49.892;10.896;2023-06-05T15:23:05;12.20;;;8.30;;
1935;SDS011;969;49.892;10.896;2023-06-05T15:25:31;8.40;;;7.47;;
1935;SDS011;969;49.892;10.896;2023-06-05T15:27:58;10.43;;;7.70;;
1935;SDS011;969;49.892;10.896;2023-06-05T15:30:24;11.23;;;7.57;;
1935;SDS011;969;49.892;10.896;2023-06-05T15:32:50;8.73;;;7.83;;
1935;SDS011;969;49.892;10.896;2023-06-05T15:35:15;9.90;;;7.00;;
1935;SDS011;969;49.892;10.896;2023-06-05T15:37:41;9.20;;;7.40;;
1935;SDS011;969;49.892;10.896;2023-06-05T15:40:07;8.80;;;7.90;;